sensor_id;sensor_type;location;lat;lon;timestamp;P1;durP1;ratioP1;P2;durP2;ratioP2
12758;SDS011;20944;47.048;15.390;2022-09-09T00:00:29;2.40;;;0.20;;
12758;SDS011;20944;47.048;15.390;2022-09-09T00:03:07;0.35;;;0.20;;
12758;SDS011;20944;47.048;15.390;2022-09-09T00:05:44;0.40;;;0.15;;
12758;SDS011;20944;47.048;15.390;2022-09-09T00:08:19;0.60;;;0.20;;
12758;SDS011;20944;47.048;15.390;2022-09-09T00:10:50;0.38;;;0.13;;
12758;SDS011;20944;47.048;15.390;2022-09-09T00:13:27;1.60;;;0.30;;
12758;SDS011;20944;47.048;15.390;2022-09-09T00:16:01;0.47;;;0.47;;
12758;SDS011;20944;47.048;15.390;2022-09-09T00:18:37;0.20;;;0.20;;
12758;SDS011;20944;47.048;15.390;2022-09-09T00:21:16;0.20;;;0.20;;
12758;SDS011;20944;47.048;15.390;2022-09-09T00:23:45;0.15;;;0.10;;
12758;SDS011;20944;47.048;15.390;2022-09-09T00:26:19;0.20;;;0.20;;
12758;SDS011;20944;47.048;15.390;2022-09-09T00:29:00;1.05;;;0.30;;
12758;SDS011;20944;47.048;15.390;2022-09-09T00:31:36;0.20;;;0.17;;
12758;SDS011;20944;47.048;15.390;2022-09-09T00:34:08;0.35;;;0.30;;
12758;SDS011;20944;47.048;15.390;2022-09-09T00:36:41;0.20;;;0.20;;
12758;SDS011;20944;47.048;15.390;2022-09-09T00:39:13;1.10;;;0.20;;
12758;SDS011;20944;47.048;15.390;2022-09-09T00:41:50;0.93;;;0.30;;
12758;SDS011;20944;47.048;15.390;2022-09-09T00:44:30;0.22;;;0.22;;
12758;SDS011;20944;47.048;15.390;2022-09-09T00:47:04;0.38;;;0.22;;
12758;SDS011;20944;47.048;15.390;2022-09-09T00:49:43;0.40;;;0.20;;
12758;SDS011;20944;47.048;15.390;2022-09-09T00:52:30;0.82;;;0.28;;
12758;SDS011;20944;47.048;15.390;2022-09-09T00:55:06;0.82;;;0.20;;
12758;SDS011;20944;47.048;15.390;2022-09-09T00:57:39;1.00;;;0.30;;
12758;SDS011;20944;47.048;15.390;2022-09-09T01:00:21;0.40;;;0.30;;
12758;SDS011;20944;47.048;15.390;2022-09-09T01:03:02;0.98;;;0.30;;
12758;SDS011;20944;47.048;15.390;2022-09-09T01:05:44;0.20;;;0.20;;
12758;SDS011;20944;47.048;15.390;2022-09-09T01:08:22;0.30;;;0.10;;
12758;SDS011;20944;47.048;15.390;2022-09-09T01:11:03;0.45;;;0.30;;
12758;SDS011;20944;47.048;15.390;2022-09-09T01:13:32;0.20;;;0.20;;
12758;SDS011;20944;47.048;15.390;2022-09-09T01:16:04;0.53;;;0.20;;
12758;SDS011;20944;47.048;15.390;2022-09-09T01:18:37;0.20;;;0.20;;
12758;SDS011;20944;47.048;15.390;2022-09-09T01:21:09;3.80;;;0.40;;
12758;SDS011;20944;47.048;15.390;2022-09-09T01:23:55;1.15;;;0.20;;
12758;SDS011;20944;47.048;15.390;2022-09-09T01:26:39;0.45;;;0.30;;
12758;SDS011;20944;47.048;15.390;2022-09-09T01:29:11;0.38;;;0.30;;
12758;SDS011;20944;47.048;15.390;2022-09-09T01:31:42;2.50;;;0.20;;
12758;SDS011;20944;47.048;15.390;2022-09-09T01:34:20;0.33;;;0.30;;
12758;SDS011;20944;47.048;15.390;2022-09-09T01:36:53;0.20;;;0.20;;
12758;SDS011;20944;47.048;15.390;2022-09-09T01:39:26;0.28;;;0.20;;
12758;SDS011;20944;47.048;15.390;2022-09-09T01:41:56;1.88;;;0.30;;
12758;SDS011;20944;47.048;15.390;2022-09-09T01:44:25;0.32;;;0.20;;
12758;SDS011;20944;47.048;15.390;2022-09-09T01:46:55;0.20;;;0.20;;
12758;SDS011;20944;47.048;15.390;2022-09-09T01:49:24;0.30;;;0.30;;
12758;SDS011;20944;47.048;15.390;2022-09-09T01:51:53;3.15;;;0.30;;
12758;SDS011;20944;47.048;15.390;2022-09-09T01:54:24;1.08;;;0.30;;
12758;SDS011;20944;47.048;15.390;2022-09-09T01:56:59;0.60;;;0.40;;
12758;SDS011;20944;47.048;15.390;2022-09-09T01:59:46;1.42;;;0.30;;
12758;SDS011;20944;47.048;15.390;2022-09-09T02:02:23;1.48;;;0.30;;
12758;SDS011;20944;47.048;15.390;2022-09-09T02:05:00;1.00;;;0.40;;
12758;SDS011;20944;47.048;15.390;2022-09-09T02:07:36;0.50;;;0.30;;
12758;SDS011;20944;47.048;15.390;2022-09-09T02:10:09;1.92;;;0.20;;
12758;SDS011;20944;47.048;15.390;2022-09-09T02:12:42;0.43;;;0.25;;
12758;SDS011;20944;47.048;15.390;2022-09-09T02:15:17;1.55;;;0.30;;
12758;SDS011;20944;47.048;15.390;2022-09-09T02:17:50;0.38;;;0.32;;
12758;SDS011;20944;47.048;15.390;2022-09-09T02:20:19;0.30;;;0.30;;
12758;SDS011;20944;47.048;15.390;2022-09-09T02:22:50;0.28;;;0.28;;
12758;SDS011;20944;47.048;15.390;2022-09-09T02:25:21;1.08;;;0.50;;
12758;SDS011;20944;47.048;15.390;2022-09-09T02:27:54;0.50;;;0.30;;
12758;SDS011;20944;47.048;15.390;2022-09-09T02:30:25;0.83;;;0.40;;
12758;SDS011;20944;47.048;15.390;2022-09-09T02:32:56;0.90;;;0.40;;
12758;SDS011;20944;47.048;15.390;2022-09-09T02:35:28;3.63;;;0.50;;
12758;SDS011;20944;47.048;15.390;2022-09-09T02:37:59;0.40;;;0.40;;
12758;SDS011;20944;47.048;15.390;2022-09-09T02:40:31;0.70;;;0.50;;
12758;SDS011;20944;47.048;15.390;2022-09-09T02:43:01;0.40;;;0.40;;
12758;SDS011;20944;47.048;15.390;2022-09-09T02:45:31;2.08;;;0.55;;
12758;SDS011;20944;47.048;15.390;2022-09-09T02:48:09;1.60;;;0.40;;
12758;SDS011;20944;47.048;15.390;2022-09-09T02:50:45;0.88;;;0.50;;
12758;SDS011;20944;47.048;15.390;2022-09-09T02:53:23;0.43;;;0.43;;
12758;SDS011;20944;47.048;15.390;2022-09-09T02:55:57;1.17;;;0.70;;
12758;SDS011;20944;47.048;15.390;2022-09-09T02:58:30;0.70;;;0.40;;
12758;SDS011;20944;47.048;15.390;2022-09-09T03:00:59;0.60;;;0.40;;
12758;SDS011;20944;47.048;15.390;2022-09-09T03:03:29;0.90;;;0.40;;
12758;SDS011;20944;47.048;15.390;2022-09-09T03:05:58;0.60;;;0.50;;
12758;SDS011;20944;47.048;15.390;2022-09-09T03:08:26;0.40;;;0.30;;
12758;SDS011;20944;47.048;15.390;2022-09-09T03:10:55;0.60;;;0.40;;
12758;SDS011;20944;47.048;15.390;2022-09-09T03:13:27;1.95;;;0.40;;
12758;SDS011;20944;47.048;15.390;2022-09-09T03:15:57;1.50;;;0.50;;
12758;SDS011;20944;47.048;15.390;2022-09-09T03:18:26;1.05;;;0.50;;
12758;SDS011;20944;47.048;15.390;2022-09-09T03:20:54;4.38;;;0.50;;
12758;SDS011;20944;47.048;15.390;2022-09-09T03:23:24;2.45;;;0.50;;
12758;SDS011;20944;47.048;15.390;2022-09-09T03:25:53;1.45;;;0.60;;
12758;SDS011;20944;47.048;15.390;2022-09-09T03:28:23;1.67;;;0.50;;
12758;SDS011;20944;47.048;15.390;2022-09-09T03:30:59;2.60;;;0.50;;
12758;SDS011;20944;47.048;15.390;2022-09-09T03:33:28;1.57;;;0.60;;
12758;SDS011;20944;47.048;15.390;2022-09-09T03:35:57;2.60;;;0.60;;
12758;SDS011;20944;47.048;15.390;2022-09-09T03:38:25;1.43;;;0.50;;
12758;SDS011;20944;47.048;15.390;2022-09-09T03:40:55;0.70;;;0.60;;
12758;SDS011;20944;47.048;15.390;2022-09-09T03:43:25;0.50;;;0.40;;
12758;SDS011;20944;47.048;15.390;2022-09-09T03:45:54;4.20;;;0.50;;
12758;SDS011;20944;47.048;15.390;2022-09-09T03:48:25;1.02;;;0.40;;
12758;SDS011;20944;47.048;15.390;2022-09-09T03:50:54;4.18;;;0.68;;
12758;SDS011;20944;47.048;15.390;2022-09-09T03:53:24;0.68;;;0.68;;
12758;SDS011;20944;47.048;15.390;2022-09-09T03:55:53;0.75;;;0.50;;
12758;SDS011;20944;47.048;15.390;2022-09-09T03:58:26;1.73;;;0.70;;
12758;SDS011;20944;47.048;15.390;2022-09-09T04:00:55;1.00;;;0.50;;
12758;SDS011;20944;47.048;15.390;2022-09-09T04:03:26;7.30;;;0.60;;
12758;SDS011;20944;47.048;15.390;2022-09-09T04:05:55;2.28;;;0.60;;
12758;SDS011;20944;47.048;15.390;2022-09-09T04:08:25;1.13;;;0.60;;
12758;SDS011;20944;47.048;15.390;2022-09-09T04:10:54;0.95;;;0.55;;
12758;SDS011;20944;47.048;15.390;2022-09-09T04:13:24;1.13;;;0.70;;
12758;SDS011;20944;47.048;15.390;2022-09-09T04:15:54;1.27;;;0.52;;
12758;SDS011;20944;47.048;15.390;2022-09-09T04:18:23;1.52;;;0.80;;
12758;SDS011;20944;47.048;15.390;2022-09-09T04:20:54;0.60;;;0.50;;
12758;SDS011;20944;47.048;15.390;2022-09-09T04:23:24;2.60;;;0.63;;
12758;SDS011;20944;47.048;15.390;2022-09-09T04:25:54;0.90;;;0.57;;
12758;SDS011;20944;47.048;15.390;2022-09-09T04:28:23;1.37;;;0.70;;
12758;SDS011;20944;47.048;15.390;2022-09-09T04:30:53;0.90;;;0.53;;
12758;SDS011;20944;47.048;15.390;2022-09-09T04:33:23;1.03;;;0.60;;
12758;SDS011;20944;47.048;15.390;2022-09-09T04:35:54;2.40;;;0.73;;
12758;SDS011;20944;47.048;15.390;2022-09-09T04:38:23;1.47;;;0.50;;
12758;SDS011;20944;47.048;15.390;2022-09-09T04:40:52;1.43;;;0.80;;
12758;SDS011;20944;47.048;15.390;2022-09-09T04:43:21;1.88;;;0.40;;
12758;SDS011;20944;47.048;15.390;2022-09-09T04:45:52;1.13;;;0.50;;
12758;SDS011;20944;47.048;15.390;2022-09-09T04:48:21;0.80;;;0.50;;
12758;SDS011;20944;47.048;15.390;2022-09-09T04:50:57;2.67;;;0.73;;
12758;SDS011;20944;47.048;15.390;2022-09-09T04:53:27;0.73;;;0.60;;
12758;SDS011;20944;47.048;15.390;2022-09-09T04:56:00;0.50;;;0.50;;
12758;SDS011;20944;47.048;15.390;2022-09-09T04:58:29;3.83;;;0.57;;
12758;SDS011;20944;47.048;15.390;2022-09-09T05:01:05;0.83;;;0.73;;
12758;SDS011;20944;47.048;15.390;2022-09-09T05:03:34;0.70;;;0.67;;
12758;SDS011;20944;47.048;15.390;2022-09-09T05:06:05;0.60;;;0.60;;
12758;SDS011;20944;47.048;15.390;2022-09-09T05:08:35;1.17;;;0.60;;
12758;SDS011;20944;47.048;15.390;2022-09-09T05:11:04;1.33;;;0.63;;
12758;SDS011;20944;47.048;15.390;2022-09-09T05:13:40;1.33;;;0.70;;
12758;SDS011;20944;47.048;15.390;2022-09-09T05:16:08;0.80;;;0.70;;
12758;SDS011;20944;47.048;15.390;2022-09-09T05:18:37;5.25;;;0.90;;
12758;SDS011;20944;47.048;15.390;2022-09-09T05:21:07;2.00;;;1.00;;
12758;SDS011;20944;47.048;15.390;2022-09-09T05:23:35;0.63;;;0.60;;
12758;SDS011;20944;47.048;15.390;2022-09-09T05:26:04;2.67;;;0.80;;
12758;SDS011;20944;47.048;15.390;2022-09-09T05:28:34;4.57;;;1.10;;
12758;SDS011;20944;47.048;15.390;2022-09-09T05:31:04;0.90;;;0.60;;
12758;SDS011;20944;47.048;15.390;2022-09-09T05:33:34;0.88;;;0.70;;
12758;SDS011;20944;47.048;15.390;2022-09-09T05:36:04;1.20;;;0.70;;
12758;SDS011;20944;47.048;15.390;2022-09-09T05:38:35;1.08;;;0.82;;
12758;SDS011;20944;47.048;15.390;2022-09-09T05:41:04;3.92;;;1.25;;
12758;SDS011;20944;47.048;15.390;2022-09-09T05:43:33;2.72;;;0.60;;
12758;SDS011;20944;47.048;15.390;2022-09-09T05:46:02;0.50;;;0.50;;
12758;SDS011;20944;47.048;15.390;2022-09-09T05:48:32;0.90;;;0.90;;
12758;SDS011;20944;47.048;15.390;2022-09-09T05:51:02;1.75;;;0.80;;
12758;SDS011;20944;47.048;15.390;2022-09-09T05:53:31;1.95;;;0.75;;
12758;SDS011;20944;47.048;15.390;2022-09-09T05:56:03;4.68;;;1.20;;
12758;SDS011;20944;47.048;15.390;2022-09-09T05:58:33;3.42;;;0.93;;
12758;SDS011;20944;47.048;15.390;2022-09-09T06:01:03;2.67;;;0.70;;
12758;SDS011;20944;47.048;15.390;2022-09-09T06:03:33;3.33;;;0.80;;
12758;SDS011;20944;47.048;15.390;2022-09-09T06:06:03;0.75;;;0.65;;
12758;SDS011;20944;47.048;15.390;2022-09-09T06:08:32;1.38;;;0.68;;
12758;SDS011;20944;47.048;15.390;2022-09-09T06:11:05;1.13;;;0.95;;
12758;SDS011;20944;47.048;15.390;2022-09-09T06:13:35;2.53;;;1.00;;
12758;SDS011;20944;47.048;15.390;2022-09-09T06:16:05;0.80;;;0.80;;
12758;SDS011;20944;47.048;15.390;2022-09-09T06:18:35;3.97;;;0.85;;
12758;SDS011;20944;47.048;15.390;2022-09-09T06:21:04;1.88;;;0.90;;
12758;SDS011;20944;47.048;15.390;2022-09-09T06:23:34;5.18;;;1.25;;
12758;SDS011;20944;47.048;15.390;2022-09-09T06:26:05;1.17;;;0.93;;
12758;SDS011;20944;47.048;15.390;2022-09-09T06:28:35;1.38;;;1.20;;
12758;SDS011;20944;47.048;15.390;2022-09-09T06:31:05;1.23;;;1.13;;
12758;SDS011;20944;47.048;15.390;2022-09-09T06:33:35;5.25;;;1.35;;
12758;SDS011;20944;47.048;15.390;2022-09-09T06:36:07;3.15;;;1.38;;
12758;SDS011;20944;47.048;15.390;2022-09-09T06:38:39;2.90;;;1.65;;
12758;SDS011;20944;47.048;15.390;2022-09-09T06:41:10;2.45;;;1.30;;
12758;SDS011;20944;47.048;15.390;2022-09-09T06:43:40;2.55;;;1.10;;
12758;SDS011;20944;47.048;15.390;2022-09-09T06:46:10;1.10;;;1.00;;
12758;SDS011;20944;47.048;15.390;2022-09-09T06:48:40;1.60;;;1.17;;
12758;SDS011;20944;47.048;15.390;2022-09-09T06:51:09;1.42;;;1.05;;
12758;SDS011;20944;47.048;15.390;2022-09-09T06:53:39;2.50;;;1.30;;
12758;SDS011;20944;47.048;15.390;2022-09-09T06:56:20;0.82;;;0.82;;
12758;SDS011;20944;47.048;15.390;2022-09-09T06:58:50;1.65;;;0.98;;
12758;SDS011;20944;47.048;15.390;2022-09-09T07:01:19;1.00;;;0.90;;
12758;SDS011;20944;47.048;15.390;2022-09-09T07:03:49;1.02;;;0.93;;
12758;SDS011;20944;47.048;15.390;2022-09-09T07:06:19;0.90;;;0.90;;
12758;SDS011;20944;47.048;15.390;2022-09-09T07:08:48;0.88;;;0.80;;
12758;SDS011;20944;47.048;15.390;2022-09-09T07:11:24;1.58;;;0.80;;
12758;SDS011;20944;47.048;15.390;2022-09-09T07:13:54;1.90;;;1.00;;
12758;SDS011;20944;47.048;15.390;2022-09-09T07:16:23;1.38;;;1.05;;
12758;SDS011;20944;47.048;15.390;2022-09-09T07:18:52;1.80;;;1.45;;
12758;SDS011;20944;47.048;15.390;2022-09-09T07:21:25;1.58;;;1.00;;
12758;SDS011;20944;47.048;15.390;2022-09-09T07:23:54;3.40;;;1.10;;
12758;SDS011;20944;47.048;15.390;2022-09-09T07:26:24;1.98;;;0.90;;
12758;SDS011;20944;47.048;15.390;2022-09-09T07:28:54;1.55;;;1.02;;
12758;SDS011;20944;47.048;15.390;2022-09-09T07:31:24;1.27;;;0.90;;
12758;SDS011;20944;47.048;15.390;2022-09-09T07:33:54;2.70;;;1.10;;
12758;SDS011;20944;47.048;15.390;2022-09-09T07:36:22;0.85;;;0.82;;
12758;SDS011;20944;47.048;15.390;2022-09-09T07:38:58;1.52;;;1.00;;
12758;SDS011;20944;47.048;15.390;2022-09-09T07:41:30;1.65;;;0.80;;
12758;SDS011;20944;47.048;15.390;2022-09-09T07:44:03;2.65;;;1.05;;
12758;SDS011;20944;47.048;15.390;2022-09-09T07:46:33;2.75;;;0.95;;
12758;SDS011;20944;47.048;15.390;2022-09-09T07:49:02;1.10;;;0.90;;
12758;SDS011;20944;47.048;15.390;2022-09-09T07:51:32;1.45;;;0.88;;
12758;SDS011;20944;47.048;15.390;2022-09-09T07:54:02;5.00;;;1.10;;
12758;SDS011;20944;47.048;15.390;2022-09-09T07:56:33;1.25;;;1.00;;
12758;SDS011;20944;47.048;15.390;2022-09-09T07:59:01;1.70;;;1.23;;
12758;SDS011;20944;47.048;15.390;2022-09-09T08:01:33;2.05;;;1.25;;
12758;SDS011;20944;47.048;15.390;2022-09-09T08:04:04;1.33;;;1.23;;
12758;SDS011;20944;47.048;15.390;2022-09-09T08:06:35;1.02;;;0.88;;
12758;SDS011;20944;47.048;15.390;2022-09-09T08:09:06;0.82;;;0.77;;
12758;SDS011;20944;47.048;15.390;2022-09-09T08:11:36;0.88;;;0.88;;
12758;SDS011;20944;47.048;15.390;2022-09-09T08:14:06;1.35;;;1.02;;
12758;SDS011;20944;47.048;15.390;2022-09-09T08:16:36;0.82;;;0.80;;
12758;SDS011;20944;47.048;15.390;2022-09-09T08:19:06;0.80;;;0.80;;
12758;SDS011;20944;47.048;15.390;2022-09-09T08:21:35;2.88;;;1.20;;
12758;SDS011;20944;47.048;15.390;2022-09-09T08:24:06;2.13;;;1.45;;
12758;SDS011;20944;47.048;15.390;2022-09-09T08:26:38;2.38;;;1.38;;
12758;SDS011;20944;47.048;15.390;2022-09-09T08:29:09;1.08;;;0.98;;
12758;SDS011;20944;47.048;15.390;2022-09-09T08:31:41;1.00;;;1.00;;
12758;SDS011;20944;47.048;15.390;2022-09-09T08:34:11;1.30;;;1.15;;
12758;SDS011;20944;47.048;15.390;2022-09-09T08:36:40;2.45;;;1.25;;
12758;SDS011;20944;47.048;15.390;2022-09-09T08:39:10;1.80;;;1.52;;
12758;SDS011;20944;47.048;15.390;2022-09-09T08:41:44;1.63;;;1.40;;
12758;SDS011;20944;47.048;15.390;2022-09-09T08:44:55;4.82;;;1.30;;
12758;SDS011;20944;47.048;15.390;2022-09-09T08:47:35;1.00;;;1.00;;
12758;SDS011;20944;47.048;15.390;2022-09-09T08:50:20;3.58;;;1.10;;
12758;SDS011;20944;47.048;15.390;2022-09-09T08:52:55;2.22;;;1.17;;
12758;SDS011;20944;47.048;15.390;2022-09-09T08:55:32;1.75;;;1.40;;
12758;SDS011;20944;47.048;15.390;2022-09-09T08:58:09;2.10;;;1.25;;
12758;SDS011;20944;47.048;15.390;2022-09-09T09:00:43;2.03;;;1.23;;
12758;SDS011;20944;47.048;15.390;2022-09-09T09:03:34;1.55;;;1.27;;
12758;SDS011;20944;47.048;15.390;2022-09-09T09:06:16;2.95;;;1.33;;
12758;SDS011;20944;47.048;15.390;2022-09-09T09:09:04;2.25;;;1.38;;
12758;SDS011;20944;47.048;15.390;2022-09-09T09:11:36;4.40;;;1.33;;
12758;SDS011;20944;47.048;15.390;2022-09-09T09:14:09;2.08;;;1.23;;
12758;SDS011;20944;47.048;15.390;2022-09-09T09:16:46;3.67;;;1.50;;
12758;SDS011;20944;47.048;15.390;2022-09-09T09:19:19;3.15;;;1.35;;
12758;SDS011;20944;47.048;15.390;2022-09-09T09:21:50;1.45;;;0.90;;
12758;SDS011;20944;47.048;15.390;2022-09-09T09:24:27;2.17;;;0.80;;
12758;SDS011;20944;47.048;15.390;2022-09-09T09:27:07;1.35;;;0.90;;
12758;SDS011;20944;47.048;15.390;2022-09-09T09:29:42;1.45;;;1.35;;
12758;SDS011;20944;47.048;15.390;2022-09-09T09:32:33;2.10;;;1.27;;
12758;SDS011;20944;47.048;15.390;2022-09-09T09:35:06;1.10;;;0.95;;
12758;SDS011;20944;47.048;15.390;2022-09-09T09:37:39;1.00;;;0.90;;
12758;SDS011;20944;47.048;15.390;2022-09-09T09:40:30;0.70;;;0.70;;
12758;SDS011;20944;47.048;15.390;2022-09-09T09:43:00;0.75;;;0.75;;
12758;SDS011;20944;47.048;15.390;2022-09-09T09:45:40;1.02;;;0.90;;
12758;SDS011;20944;47.048;15.390;2022-09-09T09:48:31;0.75;;;0.75;;
12758;SDS011;20944;47.048;15.390;2022-09-09T09:51:00;0.90;;;0.90;;
12758;SDS011;20944;47.048;15.390;2022-09-09T09:53:34;2.42;;;1.00;;
12758;SDS011;20944;47.048;15.390;2022-09-09T09:56:06;1.60;;;0.90;;
12758;SDS011;20944;47.048;15.390;2022-09-09T09:58:47;0.85;;;0.77;;
12758;SDS011;20944;47.048;15.390;2022-09-09T10:01:22;1.13;;;1.02;;
12758;SDS011;20944;47.048;15.390;2022-09-09T10:03:52;1.40;;;0.85;;
12758;SDS011;20944;47.048;15.390;2022-09-09T10:06:32;0.80;;;0.80;;
12758;SDS011;20944;47.048;15.390;2022-09-09T10:09:01;1.00;;;0.70;;
12758;SDS011;20944;47.048;15.390;2022-09-09T10:11:40;2.60;;;0.50;;
12758;SDS011;20944;47.048;15.390;2022-09-09T10:14:17;0.68;;;0.68;;
12758;SDS011;20944;47.048;15.390;2022-09-09T10:16:52;1.10;;;0.70;;
12758;SDS011;20944;47.048;15.390;2022-09-09T10:19:33;2.78;;;0.98;;
12758;SDS011;20944;47.048;15.390;2022-09-09T10:22:04;0.60;;;0.60;;
12758;SDS011;20944;47.048;15.390;2022-09-09T10:24:46;0.75;;;0.75;;
12758;SDS011;20944;47.048;15.390;2022-09-09T10:27:33;1.10;;;0.70;;
12758;SDS011;20944;47.048;15.390;2022-09-09T10:30:12;0.93;;;0.90;;
12758;SDS011;20944;47.048;15.390;2022-09-09T10:32:50;2.78;;;0.80;;
12758;SDS011;20944;47.048;15.390;2022-09-09T10:35:27;2.22;;;0.95;;
12758;SDS011;20944;47.048;15.390;2022-09-09T10:38:13;3.13;;;0.77;;
12758;SDS011;20944;47.048;15.390;2022-09-09T10:40:58;0.75;;;0.70;;
12758;SDS011;20944;47.048;15.390;2022-09-09T10:43:48;1.38;;;0.70;;
12758;SDS011;20944;47.048;15.390;2022-09-09T10:46:33;1.27;;;0.93;;
12758;SDS011;20944;47.048;15.390;2022-09-09T10:49:18;0.95;;;0.70;;
12758;SDS011;20944;47.048;15.390;2022-09-09T10:51:57;2.45;;;0.60;;
12758;SDS011;20944;47.048;15.390;2022-09-09T10:54:36;0.63;;;0.50;;
12758;SDS011;20944;47.048;15.390;2022-09-09T10:57:17;0.85;;;0.60;;
12758;SDS011;20944;47.048;15.390;2022-09-09T10:59:55;1.55;;;0.70;;
12758;SDS011;20944;47.048;15.390;2022-09-09T11:02:27;0.50;;;0.50;;
12758;SDS011;20944;47.048;15.390;2022-09-09T11:04:59;0.50;;;0.50;;
12758;SDS011;20944;47.048;15.390;2022-09-09T11:07:33;1.58;;;0.50;;
12758;SDS011;20944;47.048;15.390;2022-09-09T11:10:16;1.48;;;0.50;;
12758;SDS011;20944;47.048;15.390;2022-09-09T11:12:53;0.50;;;0.50;;
12758;SDS011;20944;47.048;15.390;2022-09-09T11:15:28;0.50;;;0.50;;
12758;SDS011;20944;47.048;15.390;2022-09-09T11:18:03;0.82;;;0.40;;
12758;SDS011;20944;47.048;15.390;2022-09-09T11:20:35;0.70;;;0.40;;
12758;SDS011;20944;47.048;15.390;2022-09-09T11:23:05;0.40;;;0.40;;
12758;SDS011;20944;47.048;15.390;2022-09-09T11:25:40;0.50;;;0.50;;
12758;SDS011;20944;47.048;15.390;2022-09-09T11:28:17;1.38;;;0.70;;
12758;SDS011;20944;47.048;15.390;2022-09-09T11:30:59;0.68;;;0.50;;
12758;SDS011;20944;47.048;15.390;2022-09-09T11:33:51;0.60;;;0.40;;
12758;SDS011;20944;47.048;15.390;2022-09-09T11:36:49;0.88;;;0.50;;
12758;SDS011;20944;47.048;15.390;2022-09-09T11:39:38;0.50;;;0.50;;
12758;SDS011;20944;47.048;15.390;2022-09-09T11:42:25;0.52;;;0.45;;
12758;SDS011;20944;47.048;15.390;2022-09-09T11:44:53;0.40;;;0.40;;
12758;SDS011;20944;47.048;15.390;2022-09-09T11:47:24;0.30;;;0.30;;
12758;SDS011;20944;47.048;15.390;2022-09-09T11:50:08;4.47;;;0.50;;
12758;SDS011;20944;47.048;15.390;2022-09-09T11:52:40;2.15;;;0.52;;
12758;SDS011;20944;47.048;15.390;2022-09-09T11:55:25;0.77;;;0.50;;
12758;SDS011;20944;47.048;15.390;2022-09-09T11:57:57;0.50;;;0.50;;
12758;SDS011;20944;47.048;15.390;2022-09-09T12:00:34;0.40;;;0.40;;
12758;SDS011;20944;47.048;15.390;2022-09-09T12:03:04;0.40;;;0.40;;
12758;SDS011;20944;47.048;15.390;2022-09-09T12:05:36;0.45;;;0.30;;
12758;SDS011;20944;47.048;15.390;2022-09-09T12:08:08;0.40;;;0.30;;
12758;SDS011;20944;47.048;15.390;2022-09-09T12:10:39;0.82;;;0.50;;
12758;SDS011;20944;47.048;15.390;2022-09-09T12:13:09;0.40;;;0.40;;
12758;SDS011;20944;47.048;15.390;2022-09-09T12:15:47;0.47;;;0.30;;
12758;SDS011;20944;47.048;15.390;2022-09-09T12:18:21;1.83;;;0.40;;
12758;SDS011;20944;47.048;15.390;2022-09-09T12:20:53;0.40;;;0.40;;
12758;SDS011;20944;47.048;15.390;2022-09-09T12:23:31;0.40;;;0.40;;
12758;SDS011;20944;47.048;15.390;2022-09-09T12:26:20;3.83;;;0.52;;
12758;SDS011;20944;47.048;15.390;2022-09-09T12:28:57;0.40;;;0.40;;
12758;SDS011;20944;47.048;15.390;2022-09-09T12:31:34;0.40;;;0.40;;
12758;SDS011;20944;47.048;15.390;2022-09-09T12:34:13;2.45;;;0.40;;
12758;SDS011;20944;47.048;15.390;2022-09-09T12:36:44;0.85;;;0.60;;
12758;SDS011;20944;47.048;15.390;2022-09-09T12:39:21;0.47;;;0.47;;
12758;SDS011;20944;47.048;15.390;2022-09-09T12:41:57;0.60;;;0.60;;
12758;SDS011;20944;47.048;15.390;2022-09-09T12:44:25;0.40;;;0.40;;
12758;SDS011;20944;47.048;15.390;2022-09-09T12:46:55;0.90;;;0.60;;
12758;SDS011;20944;47.048;15.390;2022-09-09T12:49:28;0.52;;;0.40;;
12758;SDS011;20944;47.048;15.390;2022-09-09T12:52:01;0.75;;;0.40;;
12758;SDS011;20944;47.048;15.390;2022-09-09T12:54:34;0.50;;;0.50;;
12758;SDS011;20944;47.048;15.390;2022-09-09T12:57:04;2.22;;;0.65;;
12758;SDS011;20944;47.048;15.390;2022-09-09T12:59:37;1.05;;;0.60;;
12758;SDS011;20944;47.048;15.390;2022-09-09T13:02:11;2.25;;;0.57;;
12758;SDS011;20944;47.048;15.390;2022-09-09T13:04:46;0.70;;;0.60;;
12758;SDS011;20944;47.048;15.390;2022-09-09T13:07:17;3.20;;;0.50;;
12758;SDS011;20944;47.048;15.390;2022-09-09T13:09:48;0.45;;;0.45;;
12758;SDS011;20944;47.048;15.390;2022-09-09T13:12:18;2.78;;;0.50;;
12758;SDS011;20944;47.048;15.390;2022-09-09T13:14:49;0.60;;;0.50;;
12758;SDS011;20944;47.048;15.390;2022-09-09T13:17:21;0.80;;;0.52;;
12758;SDS011;20944;47.048;15.390;2022-09-09T13:19:50;0.50;;;0.50;;
12758;SDS011;20944;47.048;15.390;2022-09-09T13:22:21;2.78;;;0.70;;
12758;SDS011;20944;47.048;15.390;2022-09-09T13:25:02;1.17;;;0.50;;
12758;SDS011;20944;47.048;15.390;2022-09-09T13:27:33;3.42;;;0.63;;
12758;SDS011;20944;47.048;15.390;2022-09-09T13:30:19;0.55;;;0.52;;
12758;SDS011;20944;47.048;15.390;2022-09-09T13:32:59;1.50;;;0.68;;
12758;SDS011;20944;47.048;15.390;2022-09-09T13:35:32;0.52;;;0.52;;
12758;SDS011;20944;47.048;15.390;2022-09-09T13:38:06;0.57;;;0.57;;
12758;SDS011;20944;47.048;15.390;2022-09-09T13:40:37;1.42;;;0.63;;
12758;SDS011;20944;47.048;15.390;2022-09-09T13:43:10;0.50;;;0.50;;
12758;SDS011;20944;47.048;15.390;2022-09-09T13:45:52;0.95;;;0.63;;
12758;SDS011;20944;47.048;15.390;2022-09-09T13:48:23;1.13;;;0.80;;
12758;SDS011;20944;47.048;15.390;2022-09-09T13:50:56;0.88;;;0.60;;
12758;SDS011;20944;47.048;15.390;2022-09-09T13:53:26;0.70;;;0.70;;
12758;SDS011;20944;47.048;15.390;2022-09-09T13:55:56;1.35;;;0.80;;
12758;SDS011;20944;47.048;15.390;2022-09-09T13:58:25;0.90;;;0.80;;
12758;SDS011;20944;47.048;15.390;2022-09-09T14:00:53;0.73;;;0.73;;
12758;SDS011;20944;47.048;15.390;2022-09-09T14:03:22;1.15;;;0.60;;
12758;SDS011;20944;47.048;15.390;2022-09-09T14:05:50;1.63;;;0.90;;
12758;SDS011;20944;47.048;15.390;2022-09-09T14:08:22;0.65;;;0.65;;
12758;SDS011;20944;47.048;15.390;2022-09-09T14:10:52;0.80;;;0.80;;
12758;SDS011;20944;47.048;15.390;2022-09-09T14:13:25;1.10;;;1.00;;
12758;SDS011;20944;47.048;15.390;2022-09-09T14:15:53;1.00;;;0.70;;
12758;SDS011;20944;47.048;15.390;2022-09-09T14:18:25;2.38;;;0.82;;
12758;SDS011;20944;47.048;15.390;2022-09-09T14:20:53;1.48;;;0.93;;
12758;SDS011;20944;47.048;15.390;2022-09-09T14:23:21;0.80;;;0.80;;
12758;SDS011;20944;47.048;15.390;2022-09-09T14:25:51;1.00;;;0.90;;
12758;SDS011;20944;47.048;15.390;2022-09-09T14:28:19;2.53;;;0.98;;
12758;SDS011;20944;47.048;15.390;2022-09-09T14:31:09;1.10;;;0.90;;
12758;SDS011;20944;47.048;15.390;2022-09-09T14:33:37;0.60;;;0.60;;
12758;SDS011;20944;47.048;15.390;2022-09-09T14:36:05;1.15;;;0.85;;
12758;SDS011;20944;47.048;15.390;2022-09-09T14:38:35;4.35;;;0.90;;
12758;SDS011;20944;47.048;15.390;2022-09-09T14:41:05;1.13;;;0.98;;
12758;SDS011;20944;47.048;15.390;2022-09-09T14:43:34;0.85;;;0.80;;
12758;SDS011;20944;47.048;15.390;2022-09-09T14:46:05;0.90;;;0.90;;
12758;SDS011;20944;47.048;15.390;2022-09-09T14:48:36;1.15;;;1.10;;
12758;SDS011;20944;47.048;15.390;2022-09-09T14:51:07;1.52;;;0.90;;
12758;SDS011;20944;47.048;15.390;2022-09-09T14:53:36;0.95;;;0.95;;
12758;SDS011;20944;47.048;15.390;2022-09-09T14:56:05;1.30;;;1.00;;
12758;SDS011;20944;47.048;15.390;2022-09-09T14:58:35;2.58;;;0.70;;
12758;SDS011;20944;47.048;15.390;2022-09-09T15:01:04;0.90;;;0.90;;
12758;SDS011;20944;47.048;15.390;2022-09-09T15:03:35;1.70;;;0.90;;
12758;SDS011;20944;47.048;15.390;2022-09-09T15:06:04;3.10;;;0.90;;
12758;SDS011;20944;47.048;15.390;2022-09-09T15:08:35;2.10;;;0.55;;